Time;durP1;ratioP1;P1;durP2;ratioP2;P2;SDS_P1;SDS_P2;PMS_P1;PMS_P2;Temp;Humidity;BMP_temperature;BMP_pressure;BME280_temperature;BME280_humidity;BME280_pressure;Samples;Min_cycle;Max_cycle;Signal;HPM_P1;HPM_P2
2023/03/05 00:00:44;;;;;;;16.00;1.70;;;;;;;4.14;100.00;102287.09;5071908;28;20306;-54
2023/03/05 00:03:09;;;;;;;36.03;2.63;;;;;;;4.09;100.00;102282.06;5071524;28;20036;-52
2023/03/05 00:05:35;;;;;;;16.92;2.08;;;;;;;4.04;100.00;102283.34;5071399;28;20059;-54
2023/03/05 00:08:00;;;;;;;16.58;1.75;;;;;;;4.01;100.00;102279.09;5073825;28;20020;-52
2023/03/05 00:10:25;;;;;;;21.40;1.88;;;;;;;3.99;100.00;102280.13;5071111;28;20035;-51
2023/03/05 00:12:51;;;;;;;17.35;1.25;;;;;;;3.95;100.00;102279.50;5071168;28;20502;-53
2023/03/05 00:15:16;;;;;;;25.23;1.92;;;;;;;3.94;100.00;102273.31;5071894;28;20383;-51
2023/03/05 00:17:41;;;;;;;18.38;1.98;;;;;;;3.92;100.00;102269.03;5075795;28;20028;-52
2023/03/05 00:20:07;;;;;;;17.10;2.05;;;;;;;3.89;100.00;102267.44;5071719;28;20048;-54
2023/03/05 00:22:34;;;;;;;19.90;2.40;;;;;;;3.87;100.00;102273.81;5072999;28;20047;-54
2023/03/05 00:24:59;;;;;;;31.15;1.98;;;;;;;3.86;100.00;102272.13;5091783;28;20079;-52
2023/03/05 00:27:24;;;;;;;14.55;2.10;;;;;;;3.83;100.00;102269.66;5083228;28;20279;-54
2023/03/05 00:29:50;;;;;;;23.73;2.15;;;;;;;3.80;100.00;102269.88;5070818;28;20553;-52
2023/03/05 00:32:15;;;;;;;16.33;1.88;;;;;;;3.77;100.00;102264.75;5071191;28;20138;-55
2023/03/05 00:34:41;;;;;;;12.23;2.42;;;;;;;3.77;100.00;102272.75;5071671;28;20099;-53
2023/03/05 00:37:06;;;;;;;18.20;2.53;;;;;;;3.80;100.00;102272.53;5084849;28;20043;-53
2023/03/05 00:39:32;;;;;;;24.65;1.98;;;;;;;3.82;100.00;102263.50;5072433;28;20086;-54
2023/03/05 00:41:57;;;;;;;22.75;2.40;;;;;;;3.80;100.00;102259.22;5078957;28;20039;-54
2023/03/05 00:44:23;;;;;;;21.98;2.67;;;;;;;3.81;100.00;102255.59;5070662;28;20116;-52
2023/03/05 00:46:48;;;;;;;31.15;3.95;;;;;;;3.86;100.00;102258.81;5073317;28;20815;-53
2023/03/05 00:49:14;;;;;;;10.63;2.47;;;;;;;3.87;100.00;102255.16;5081881;28;20416;-53
2023/03/05 00:51:39;;;;;;;14.48;2.30;;;;;;;3.91;100.00;102254.03;5078032;28;20085;-54
2023/03/05 00:54:05;;;;;;;18.77;2.83;;;;;;;3.90;100.00;102260.31;5071022;28;20092;-55
2023/03/05 00:56:31;;;;;;;22.90;3.15;;;;;;;3.91;100.00;102252.19;5070843;28;20084;-54
2023/03/05 00:58:56;;;;;;;17.02;2.83;;;;;;;3.85;100.00;102249.13;5090332;28;20538;-54
2023/03/05 01:01:22;;;;;;;13.60;3.22;;;;;;;3.87;100.00;102244.53;5077234;28;20036;-53
2023/03/05 01:03:47;;;;;;;22.73;3.35;;;;;;;3.85;100.00;102241.13;5071056;28;20039;-52
2023/03/05 01:06:15;;;;;;;20.15;3.00;;;;;;;3.88;100.00;102244.44;5070830;28;20028;-53
2023/03/05 01:08:41;;;;;;;20.98;2.72;;;;;;;3.91;100.00;102230.91;5087254;28;20115;-53
2023/03/05 01:11:07;;;;;;;16.45;3.30;;;;;;;3.94;100.00;102236.00;5089132;28;20581;-53
2023/03/05 01:13:32;;;;;;;24.50;3.65;;;;;;;3.97;100.00;102229.63;5073779;28;20123;-56
2023/03/05 01:15:59;;;;;;;25.67;3.58;;;;;;;3.95;100.00;102228.91;5082415;28;20183;-55
2023/03/05 01:18:24;;;;;;;20.25;3.10;;;;;;;3.93;100.00;102228.13;5085363;28;20520;-56
2023/03/05 01:20:49;;;;;;;25.92;3.30;;;;;;;3.93;100.00;102222.81;5091076;28;20028;-50
2023/03/05 01:23:15;;;;;;;20.95;4.60;;;;;;;3.93;100.00;102215.66;5069577;28;20470;-52
2023/03/05 01:25:40;;;;;;;23.23;4.60;;;;;;;3.91;100.00;102211.41;5069924;28;20461;-54
2023/03/05 01:28:06;;;;;;;32.50;5.32;;;;;;;3.86;100.00;102209.03;5078998;28;20024;-53
2023/03/05 01:30:32;;;;;;;18.63;5.25;;;;;;;3.86;100.00;102214.38;5069246;28;20541;-55
2023/03/05 01:32:57;;;;;;;30.10;6.20;;;;;;;3.89;100.00;102211.50;5073824;28;20733;-55
2023/03/05 01:35:24;;;;;;;26.77;5.60;;;;;;;3.93;100.00;102207.69;5069994;28;20041;-52
2023/03/05 01:37:50;;;;;;;28.23;5.53;;;;;;;3.96;100.00;102202.13;5079301;28;20024;-52
2023/03/05 01:40:18;;;;;;;26.65;5.68;;;;;;;3.97;100.00;102208.31;5090482;28;20032;-56
2023/03/05 01:42:48;;;;;;;18.00;5.65;;;;;;;4.02;100.00;102198.19;5077600;28;20036;-54
2023/03/05 01:45:16;;;;;;;29.75;5.88;;;;;;;4.05;100.00;102199.78;5073717;28;20504;-54
2023/03/05 01:47:42;;;;;;;39.03;6.05;;;;;;;4.11;100.00;102194.91;5082244;28;20252;-54
2023/03/05 01:50:16;;;;;;;29.15;5.30;;;;;;;4.10;100.00;102182.53;5070010;28;20038;-55
2023/03/05 01:52:48;;;;;;;29.90;4.30;;;;;;;4.07;100.00;102179.22;5070513;28;20383;-52
2023/03/05 01:55:16;;;;;;;28.33;3.60;;;;;;;4.11;100.00;102183.41;5068279;28;20103;-53
2023/03/05 01:57:45;;;;;;;12.70;2.42;;;;;;;4.05;100.00;102170.50;5075713;28;20032;-52
2023/03/05 02:00:28;;;;;;;20.58;1.70;;;;;;;4.06;100.00;102167.72;5089025;28;20021;-51
2023/03/05 02:02:55;;;;;;;9.75;1.25;;;;;;;4.05;100.00;102155.34;5073341;28;20487;-55
2023/03/05 02:05:32;;;;;;;19.20;1.92;;;;;;;4.11;100.00;102146.94;5068953;28;20081;-54
2023/03/05 02:07:59;;;;;;;19.95;1.88;;;;;;;4.12;100.00;102135.31;5075679;28;20123;-51
2023/03/05 02:10:28;;;;;;;25.85;1.70;;;;;;;4.12;100.00;102134.47;5075843;28;20032;-54
2023/03/05 02:12:55;;;;;;;19.52;1.67;;;;;;;4.12;100.00;102127.31;5067632;28;20124;-55
2023/03/05 02:15:21;;;;;;;25.87;2.03;;;;;;;4.21;100.00;102120.47;5072695;28;20526;-53
2023/03/05 02:17:46;;;;;;;14.82;1.42;;;;;;;4.26;100.00;102118.34;5073671;28;20029;-52
2023/03/05 02:20:20;;;;;;;18.88;1.67;;;;;;;4.31;100.00;102118.03;5049600;28;20430;-52
2023/03/05 02:22:46;;;;;;;16.35;1.10;;;;;;;4.36;100.00;102121.22;5066956;28;20036;-51
2023/03/05 02:25:26;;;;;;;22.48;1.80;;;;;;;4.35;100.00;102111.53;5068967;28;20078;-53
2023/03/05 02:28:15;;;;;;;15.55;2.15;;;;;;;4.34;100.00;102110.66;5077231;28;20118;-52
2023/03/05 02:30:41;;;;;;;16.25;1.40;;;;;;;4.36;100.00;102102.56;5090037;28;20024;-52
2023/03/05 02:33:07;;;;;;;13.93;1.70;;;;;;;4.32;100.00;102103.75;5072114;28;20537;-53
2023/03/05 02:35:32;;;;;;;9.13;1.73;;;;;;;4.30;100.00;102103.00;5071247;28;20119;-54
2023/03/05 02:37:57;;;;;;;10.10;1.50;;;;;;;4.29;100.00;102094.16;5074531;28;20401;-54
2023/03/05 02:40:23;;;;;;;23.25;1.75;;;;;;;4.30;100.00;102097.69;5083826;28;20529;-53
2023/03/05 02:42:48;;;;;;;14.30;1.85;;;;;;;4.28;100.00;102095.09;5078827;28;20052;-53
2023/03/05 02:45:14;;;;;;;15.05;2.17;;;;;;;4.19;100.00;102090.47;5072877;28;20368;-51
2023/03/05 02:47:39;;;;;;;15.98;1.35;;;;;;;4.13;100.00;102086.41;5084224;28;20038;-52
2023/03/05 02:50:06;;;;;;;18.90;2.22;;;;;;;4.10;100.00;102085.75;5095939;28;20044;-52
2023/03/05 02:52:32;;;;;;;7.25;1.27;;;;;;;4.05;100.00;102083.41;5077566;28;20097;-51
2023/03/05 02:54:57;;;;;;;11.02;1.35;;;;;;;4.01;100.00;102070.44;5074573;28;20032;-52
2023/03/05 02:57:23;;;;;;;18.48;2.88;;;;;;;4.00;100.00;102079.38;5078432;28;20071;-54
2023/03/05 02:59:48;;;;;;;9.73;1.67;;;;;;;3.97;100.00;102075.97;5093286;28;20115;-53
2023/03/05 03:02:14;;;;;;;11.23;1.45;;;;;;;3.95;100.00;102072.59;5088506;28;20028;-53
2023/03/05 03:04:39;;;;;;;14.43;1.45;;;;;;;3.92;100.00;102078.13;5072421;28;20604;-52
2023/03/05 03:07:04;;;;;;;10.40;1.48;;;;;;;3.93;100.00;102073.66;5077136;28;20028;-52
2023/03/05 03:09:30;;;;;;;8.57;1.33;;;;;;;3.92;100.00;102058.63;5093023;28;20427;-53
2023/03/05 03:11:55;;;;;;;12.05;1.58;;;;;;;3.94;100.00;102062.03;5086705;28;20040;-55
2023/03/05 03:14:20;;;;;;;6.78;1.40;;;;;;;3.96;100.00;102062.78;5072843;28;20043;-54
2023/03/05 03:16:46;;;;;;;10.70;1.42;;;;;;;3.96;100.00;102058.31;5073009;28;20462;-52
2023/03/05 03:19:12;;;;;;;11.55;1.50;;;;;;;4.07;100.00;102067.34;5092805;28;20052;-53
2023/03/05 03:21:38;;;;;;;12.25;1.58;;;;;;;4.14;100.00;102064.13;5089865;28;20052;-53
2023/03/05 03:24:04;;;;;;;9.10;1.10;;;;;;;4.13;100.00;102059.78;5069391;28;20564;-54
2023/03/05 03:26:30;;;;;;;11.10;1.20;;;;;;;4.17;100.00;102055.91;5070162;28;20040;-55
2023/03/05 03:28:56;;;;;;;9.15;2.03;;;;;;;4.18;100.00;102041.63;5090694;28;20062;-54
2023/03/05 03:31:22;;;;;;;8.70;1.00;;;;;;;4.14;100.00;102031.31;5068730;28;20102;-53
2023/03/05 03:33:47;;;;;;;9.77;0.85;;;;;;;4.10;100.00;102037.81;5072935;28;20044;-54
2023/03/05 03:36:13;;;;;;;8.35;0.70;;;;;;;4.08;100.00;102029.94;5071694;28;20498;-53
2023/03/05 03:38:38;;;;;;;13.75;1.10;;;;;;;4.07;100.00;102022.91;5072314;28;20052;-53
2023/03/05 03:41:07;;;;;;;4.03;1.13;;;;;;;4.09;100.00;102015.66;5073148;28;20056;-52
2023/03/05 03:43:34;;;;;;;6.13;0.60;;;;;;;4.05;100.00;102008.81;5088781;28;20616;-52
2023/03/05 03:45:59;;;;;;;14.55;1.30;;;;;;;4.05;100.00;102013.31;5081871;28;20150;-52
2023/03/05 03:48:25;;;;;;;14.10;1.65;;;;;;;4.04;100.00;102001.81;5072224;28;20104;-53
2023/03/05 03:50:50;;;;;;;13.20;1.00;;;;;;;4.01;100.00;102007.38;5072089;28;20036;-53
2023/03/05 03:53:16;;;;;;;6.80;0.75;;;;;;;4.01;100.00;101996.72;5071403;28;20039;-52
2023/03/05 03:55:43;;;;;;;8.05;1.00;;;;;;;4.02;100.00;102006.38;5071629;28;20029;-54
2023/03/05 03:58:09;;;;;;;9.68;1.10;;;;;;;4.00;100.00;101995.00;5071838;28;20391;-54
2023/03/05 04:00:34;;;;;;;14.63;1.67;;;;;;;4.01;100.00;102002.03;5080834;28;20036;-54
2023/03/05 04:03:00;;;;;;;16.65;1.13;;;;;;;4.00;100.00;102000.31;5078184;28;20033;-55
2023/03/05 04:05:25;;;;;;;17.63;1.58;;;;;;;3.99;100.00;102000.44;5074548;28;20032;-54
2023/03/05 04:07:51;;;;;;;9.85;1.05;;;;;;;3.95;100.00;101997.16;5071948;28;20356;-53
2023/03/05 04:10:17;;;;;;;15.20;0.88;;;;;;;3.91;100.00;101985.00;5071555;28;20054;-54
2023/03/05 04:12:42;;;;;;;10.68;1.10;;;;;;;3.87;100.00;101994.16;5071944;28;20112;-54
2023/03/05 04:15:09;;;;;;;8.07;1.30;;;;;;;3.84;100.00;101989.06;5071554;28;20025;-53
2023/03/05 04:17:34;;;;;;;12.02;1.42;;;;;;;3.83;100.00;101977.56;5071065;28;20372;-55
2023/03/05 04:20:00;;;;;;;10.85;1.00;;;;;;;3.80;100.00;101975.13;5071554;28;20514;-54
2023/03/05 04:22:25;;;;;;;7.20;0.80;;;;;;;3.79;100.00;101980.56;5071629;28;20029;-52
2023/03/05 04:24:50;;;;;;;9.38;1.35;;;;;;;3.77;100.00;101979.84;5071341;28;20024;-54
2023/03/05 04:27:16;;;;;;;10.25;0.88;;;;;;;3.74;100.00;101979.09;5070724;28;20107;-52
2023/03/05 04:29:41;;;;;;;8.88;0.80;;;;;;;3.74;100.00;101967.59;5089791;28;20028;-52
2023/03/05 04:32:07;;;;;;;11.95;1.38;;;;;;;3.76;100.00;101970.97;5081533;28;20075;-52
2023/03/05 04:34:32;;;;;;;3.80;0.80;;;;;;;3.81;100.00;101965.31;5071184;28;20105;-53
2023/03/05 04:36:57;;;;;;;12.00;0.98;;;;;;;3.80;100.00;101967.16;5070385;28;20284;-52
2023/03/05 04:39:23;;;;;;;11.77;1.00;;;;;;;3.80;100.00;101960.97;5071023;28;20394;-52
2023/03/05 04:41:48;;;;;;;12.15;0.98;;;;;;;3.79;100.00;101969.91;5072355;28;20502;-52
2023/03/05 04:44:14;;;;;;;7.63;1.00;;;;;;;3.78;100.00;101960.22;5090513;28;20055;-52
2023/03/05 04:46:39;;;;;;;14.45;1.40;;;;;;;3.72;100.00;101970.34;5079815;28;20520;-52
2023/03/05 04:49:05;;;;;;;5.68;1.25;;;;;;;3.68;100.00;101963.53;5070850;28;20032;-53
2023/03/05 04:51:30;;;;;;;4.50;0.55;;;;;;;3.66;100.00;101961.94;5071734;28;20421;-50
2023/03/05 04:53:55;;;;;;;16.73;1.52;;;;;;;3.61;100.00;101958.78;5070136;28;20456;-53
2023/03/05 04:56:21;;;;;;;15.63;1.23;;;;;;;3.59;100.00;101955.38;5069750;28;20029;-52
2023/03/05 04:58:46;;;;;;;5.93;0.85;;;;;;;3.57;100.00;101955.47;5070015;28;20067;-53
2023/03/05 05:01:12;;;;;;;16.10;1.65;;;;;;;3.56;100.00;101947.63;5071777;28;20056;-53
2023/03/05 05:03:37;;;;;;;8.40;0.90;;;;;;;3.53;100.00;101940.69;5074640;28;20032;-52
2023/03/05 05:06:03;;;;;;;14.55;1.30;;;;;;;3.53;100.00;101938.03;5069918;28;20020;-52
2023/03/05 05:08:28;;;;;;;11.32;1.10;;;;;;;3.52;100.00;101936.31;5070637;28;20034;-51
2023/03/05 05:10:58;;;;;;;14.13;2.88;;;;;;;3.52;100.00;101938.97;5070593;28;20013;-51
2023/03/05 05:13:24;;;;;;;9.10;1.00;;;;;;;3.47;100.00;101944.63;5074372;28;20086;-52
2023/03/05 05:15:49;;;;;;;12.07;1.40;;;;;;;3.42;100.00;101941.47;5078442;28;20482;-51
2023/03/05 05:18:14;;;;;;;12.43;0.88;;;;;;;3.40;100.00;101931.88;5070198;28;20049;-51
2023/03/05 05:20:40;;;;;;;15.90;1.13;;;;;;;3.39;100.00;101936.34;5070353;28;20058;-53
2023/03/05 05:23:05;;;;;;;13.20;1.10;;;;;;;3.40;100.00;101931.88;5073362;28;20029;-52
2023/03/05 05:25:30;;;;;;;17.80;2.20;;;;;;;3.42;100.00;101922.84;5068508;28;20085;-53
2023/03/05 05:27:56;;;;;;;8.75;1.00;;;;;;;3.46;100.00;101926.13;5050147;28;20060;-52
2023/03/05 05:30:21;;;;;;;13.20;1.45;;;;;;;3.54;100.00;101926.41;5050232;28;20075;-51
2023/03/05 05:32:46;;;;;;;10.00;0.90;;;;;;;3.59;100.00;101924.28;5062038;28;20058;-53
2023/03/05 05:35:12;;;;;;;11.40;1.77;;;;;;;3.63;100.00;101920.41;5069303;28;20052;-52
2023/03/05 05:37:37;;;;;;;4.18;0.98;;;;;;;3.70;100.00;101913.69;5070047;28;20344;-53
2023/03/05 05:40:04;;;;;;;13.52;1.55;;;;;;;3.79;100.00;101916.66;5070176;28;20031;-52
2023/03/05 05:42:29;;;;;;;10.50;1.15;;;;;;;3.83;100.00;101912.81;5070038;28;20095;-53
2023/03/05 05:44:55;;;;;;;7.03;1.05;;;;;;;3.86;100.00;101913.44;5069186;28;20107;-54
2023/03/05 05:47:20;;;;;;;7.15;0.60;;;;;;;3.89;100.00;101907.03;5068587;28;20101;-53
2023/03/05 05:49:46;;;;;;;10.10;0.88;;;;;;;3.91;100.00;101910.44;5069961;28;20128;-53
2023/03/05 05:52:12;;;;;;;14.63;1.00;;;;;;;3.94;100.00;101896.91;5069702;28;20078;-53
2023/03/05 05:54:37;;;;;;;14.82;0.98;;;;;;;3.96;100.00;101894.97;5070019;28;20020;-52
2023/03/05 05:57:03;;;;;;;12.25;1.00;;;;;;;3.98;100.00;101893.06;5068946;28;20032;-52
2023/03/05 05:59:28;;;;;;;2.70;0.60;;;;;;;4.02;100.00;101894.50;5070271;28;20036;-52
2023/03/05 06:01:53;;;;;;;8.45;0.80;;;;;;;4.11;100.00;101899.19;5069531;28;20070;-52
2023/03/05 06:04:19;;;;;;;9.45;0.70;;;;;;;4.09;100.00;101902.91;5070165;28;20052;-53
2023/03/05 06:06:44;;;;;;;4.05;0.77;;;;;;;4.07;100.00;101900.34;5069332;28;20028;-52
2023/03/05 06:09:10;;;;;;;2.10;0.43;;;;;;;3.98;100.00;101901.03;5071940;28;20103;-55
2023/03/05 06:11:36;;;;;;;10.13;1.05;;;;;;;3.77;100.00;101902.63;5065924;28;20036;-52
2023/03/05 06:14:02;;;;;;;8.85;0.82;;;;;;;3.68;100.00;101899.63;5071813;28;20024;-52
2023/03/05 06:16:28;;;;;;;4.22;0.60;;;;;;;3.63;100.00;101899.13;5071631;28;20032;-54
2023/03/05 06:18:53;;;;;;;7.05;0.70;;;;;;;3.61;100.00;101893.09;5070585;28;20048;-53
2023/03/05 06:21:20;;;;;;;3.80;1.25;;;;;;;3.59;100.00;101897.66;5072268;28;20386;-53
2023/03/05 06:23:46;;;;;;;7.00;0.50;;;;;;;3.61;100.00;101898.41;5070621;28;20070;-54
2023/03/05 06:26:13;;;;;;;4.25;0.50;;;;;;;3.62;100.00;101900.09;5071479;28;20025;-51
2023/03/05 06:28:40;;;;;;;10.15;0.70;;;;;;;3.63;100.00;101899.13;5072062;28;20027;-53
2023/03/05 06:31:11;;;;;;;8.30;0.50;;;;;;;3.60;100.00;101894.03;5070914;28;20062;-51
2023/03/05 06:33:37;;;;;;;5.05;0.55;;;;;;;3.61;100.00;101889.56;5072002;28;20135;-52
2023/03/05 06:36:07;;;;;;;8.32;0.90;;;;;;;3.63;100.00;101901.78;5071954;28;20482;-51
2023/03/05 06:38:33;;;;;;;7.47;0.82;;;;;;;3.69;100.00;101896.03;5070867;28;20036;-52
2023/03/05 06:41:04;;;;;;;4.60;0.60;;;;;;;3.71;100.00;101894.13;5068016;28;20043;-51
2023/03/05 06:43:32;;;;;;;12.48;1.00;;;;;;;3.77;100.00;101894.63;5071465;28;20040;-52
2023/03/05 06:46:07;;;;;;;6.32;1.42;;;;;;;3.80;100.00;101892.59;5072011;28;20109;-53
2023/03/05 06:48:32;;;;;;;7.90;0.82;;;;;;;3.82;100.00;101879.16;5072487;28;20082;-52
2023/03/05 06:50:58;;;;;;;8.02;0.73;;;;;;;3.87;100.00;101887.66;5071162;28;20040;-53
2023/03/05 06:53:24;;;;;;;13.10;1.20;;;;;;;3.97;100.00;101878.03;5070967;28;20050;-52
2023/03/05 06:55:50;;;;;;;13.68;0.90;;;;;;;3.97;100.00;101873.53;5071315;28;20067;-54
2023/03/05 06:58:16;;;;;;;11.25;0.93;;;;;;;4.01;100.00;101868.84;5071129;28;20032;-52
2023/03/05 07:00:42;;;;;;;8.98;0.95;;;;;;;4.04;100.00;101873.94;5070807;28;20104;-53
2023/03/05 07:03:08;;;;;;;5.97;0.70;;;;;;;4.04;100.00;101865.94;5069813;28;20078;-52
2023/03/05 07:05:37;;;;;;;10.98;1.15;;;;;;;4.11;100.00;101867.22;5066359;28;20241;-52
2023/03/05 07:08:03;;;;;;;8.77;1.25;;;;;;;4.07;100.00;101864.88;5069238;28;20081;-52
2023/03/05 07:10:29;;;;;;;10.30;1.10;;;;;;;4.10;100.00;101873.47;5070671;28;20056;-52
2023/03/05 07:12:54;;;;;;;6.40;0.75;;;;;;;4.18;100.00;101865.75;5070442;28;20040;-53
2023/03/05 07:15:19;;;;;;;15.77;1.05;;;;;;;4.39;100.00;101875.78;5070412;28;20029;-52
2023/03/05 07:17:45;;;;;;;13.98;0.80;;;;;;;4.35;100.00;101866.31;5064489;28;20705;-52
2023/03/05 07:20:11;;;;;;;5.47;0.50;;;;;;;4.29;100.00;101872.09;5068909;28;20024;-54
2023/03/05 07:22:37;;;;;;;3.55;0.52;;;;;;;4.24;100.00;101875.13;5052455;28;20397;-54
2023/03/05 07:25:03;;;;;;;5.22;1.10;;;;;;;4.26;100.00;101867.00;5070135;28;20016;-51
2023/03/05 07:27:28;;;;;;;3.30;0.50;;;;;;;4.18;100.00;101863.09;5069135;28;20108;-52
2023/03/05 07:29:53;;;;;;;12.02;1.25;;;;;;;4.18;100.00;101865.75;5069792;28;20553;-54
2023/03/05 07:32:19;;;;;;;6.63;0.95;;;;;;;4.28;100.00;101865.09;5068293;28;20059;-52
2023/03/05 07:34:44;;;;;;;13.50;1.45;;;;;;;4.34;100.00;101861.94;5069875;28;20024;-53
2023/03/05 07:37:09;;;;;;;8.38;1.30;;;;;;;4.59;100.00;101868.94;5078636;28;20166;-52
2023/03/05 07:39:35;;;;;;;5.25;1.40;;;;;;;4.79;100.00;101870.03;5067585;28;20558;-52
2023/03/05 07:42:00;;;;;;;13.85;0.90;;;;;;;5.07;100.00;101864.25;5052370;28;20024;-54
2023/03/05 07:44:25;;;;;;;6.28;0.60;;;;;;;5.30;100.00;101861.59;5069547;28;20474;-53
2023/03/05 07:46:51;;;;;;;6.18;1.30;;;;;;;5.63;100.00;101857.16;5070534;28;20037;-51
2023/03/05 07:49:16;;;;;;;15.80;2.17;;;;;;;6.06;100.00;101856.34;5069831;28;20045;-52
2023/03/05 07:51:42;;;;;;;7.85;0.90;;;;;;;6.85;100.00;101859.44;5070386;28;20395;-52
2023/03/05 07:54:09;;;;;;;18.70;1.25;;;;;;;7.56;100.00;101859.44;5068849;28;20487;-52
2023/03/05 07:56:35;;;;;;;8.85;0.90;;;;;;;7.98;100.00;101840.44;5067312;28;20104;-54
2023/03/05 07:59:04;;;;;;;11.77;1.15;;;;;;;8.22;100.00;101839.19;5058193;28;20048;-53
2023/03/05 08:01:30;;;;;;;20.17;2.55;;;;;;;8.03;100.00;101824.78;5067446;28;20083;-53
2023/03/05 08:03:56;;;;;;;7.47;1.13;;;;;;;7.86;100.00;101822.78;5070346;28;20040;-53
2023/03/05 08:06:21;;;;;;;6.90;1.10;;;;;;;7.56;100.00;101823.75;5068250;28;20021;-53
2023/03/05 08:08:47;;;;;;;9.57;1.10;;;;;;;7.44;100.00;101823.84;5071295;28;20035;-52
2023/03/05 08:11:14;;;;;;;12.48;1.05;;;;;;;7.17;100.00;101816.47;5073606;28;20646;-52
2023/03/05 08:13:40;;;;;;;10.52;1.10;;;;;;;7.03;100.00;101815.00;5073824;28;20214;-52
2023/03/05 08:16:08;;;;;;;13.80;1.20;;;;;;;6.88;100.00;101820.84;5073461;28;20124;-53
2023/03/05 08:18:33;;;;;;;7.10;0.95;;;;;;;6.78;100.00;101815.44;5069509;28;20075;-52
2023/03/05 08:20:59;;;;;;;13.13;0.85;;;;;;;6.72;100.00;101821.34;5069033;28;20531;-51
2023/03/05 08:23:25;;;;;;;11.02;1.40;;;;;;;6.74;100.00;101812.19;5068597;28;20024;-53
2023/03/05 08:25:50;;;;;;;11.90;1.38;;;;;;;7.17;100.00;101816.47;5068500;28;20450;-52
2023/03/05 08:28:18;;;;;;;6.18;0.85;;;;;;;7.40;100.00;101813.56;5068789;28;20037;-51
2023/03/05 08:30:44;;;;;;;10.05;0.90;;;;;;;7.37;100.00;101808.47;5069332;28;20032;-51
2023/03/05 08:33:09;;;;;;;13.75;2.05;;;;;;;7.41;100.00;101812.59;5069004;28;20016;-52
2023/03/05 08:35:35;;;;;;;12.05;1.08;;;;;;;7.27;100.00;101808.47;5068109;28;20437;-52
2023/03/05 08:38:00;;;;;;;6.82;1.65;;;;;;;6.94;100.00;101806.94;5068843;28;20054;-52
2023/03/05 08:40:25;;;;;;;10.23;0.70;;;;;;;6.46;100.00;101815.56;5069436;28;20051;-52
2023/03/05 08:42:51;;;;;;;10.07;1.15;;;;;;;5.97;100.00;101814.34;5068293;28;20078;-50
2023/03/05 08:45:16;;;;;;;13.38;2.13;;;;;;;5.62;100.00;101818.09;5068978;28;20023;-49
2023/03/05 08:47:42;;;;;;;6.55;1.20;;;;;;;5.49;100.00;101827.09;5069221;28;20109;-56
2023/03/05 08:50:08;;;;;;;10.07;0.85;;;;;;;5.33;100.00;101823.97;5065103;28;20100;-56
2023/03/05 08:52:33;;;;;;;8.68;1.00;;;;;;;5.25;100.00;101829.06;5056557;28;20028;-53
2023/03/05 08:54:58;;;;;;;1.05;0.45;;;;;;;5.24;100.00;101828.22;5069394;28;20068;-57
2023/03/05 08:57:24;;;;;;;11.18;0.70;;;;;;;5.01;100.00;101830.06;5071853;28;20029;-56
2023/03/05 08:59:49;;;;;;;6.35;0.90;;;;;;;4.75;100.00;101825.94;5088123;28;20039;-57
2023/03/05 09:02:14;;;;;;;9.48;0.88;;;;;;;4.59;100.00;101827.13;5069547;28;20035;-50
2023/03/05 09:04:40;;;;;;;15.35;1.20;;;;;;;4.45;100.00;101834.47;5068199;28;20121;-48
2023/03/05 09:07:05;;;;;;;7.40;0.60;;;;;;;4.31;100.00;101827.53;5066408;28;20105;-49
2023/03/05 09:09:31;;;;;;;7.47;0.60;;;;;;;4.12;100.00;101826.28;5069689;28;20078;-50
2023/03/05 09:11:58;;;;;;;10.27;0.90;;;;;;;4.09;100.00;101838.97;5069694;28;20059;-55
2023/03/05 09:14:23;;;;;;;15.35;1.75;;;;;;;4.15;100.00;101834.03;5067507;28;20047;-55
2023/03/05 09:16:49;;;;;;;9.40;0.80;;;;;;;4.29;100.00;101835.66;5069742;28;20040;-58
2023/03/05 09:19:14;;;;;;;11.60;1.02;;;;;;;4.45;100.00;101840.66;5066474;28;20146;-57
2023/03/05 09:21:40;;;;;;;4.93;0.80;;;;;;;4.57;100.00;101844.19;5070657;28;20504;-54
2023/03/05 09:24:06;;;;;;;3.80;1.10;;;;;;;4.70;100.00;101838.78;5072973;28;20457;-53
2023/03/05 09:26:31;;;;;;;12.88;1.20;;;;;;;4.87;100.00;101829.44;5068044;28;20040;-53
2023/03/05 09:28:57;;;;;;;9.57;2.28;;;;;;;4.98;100.00;101822.31;5069831;28;20020;-53
2023/03/05 09:31:22;;;;;;;16.30;1.88;;;;;;;4.98;100.00;101824.97;5065298;28;20041;-53
2023/03/05 09:33:48;;;;;;;8.88;1.42;;;;;;;5.02;100.00;101823.75;5072130;28;20024;-52
2023/03/05 09:36:18;;;;;;;7.78;1.30;;;;;;;5.11;100.00;101818.63;5070030;28;20031;-53
2023/03/05 09:38:44;;;;;;;12.80;1.10;;;;;;;5.24;100.00;101817.56;5066212;28;20036;-51
2023/03/05 09:41:36;;;;;;;11.07;1.15;;;;;;;5.35;100.00;101819.34;5068530;28;20028;-51
2023/03/05 09:44:31;;;;;;;7.78;1.10;;;;;;;5.53;100.00;101813.47;5072610;28;20040;-52
2023/03/05 09:47:08;;;;;;;5.00;1.30;;;;;;;5.70;100.00;101812.97;5031844;28;20119;-51
2023/03/05 09:49:46;;;;;;;15.63;1.80;;;;;;;5.85;100.00;101813.53;5067486;28;20379;-52
2023/03/05 09:52:19;;;;;;;9.02;1.00;;;;;;;6.03;100.00;101811.16;5069172;28;20046;-52
2023/03/05 09:54:47;;;;;;;11.07;1.75;;;;;;;6.35;100.00;101808.44;5069258;28;20060;-52
2023/03/05 09:57:17;;;;;;;3.63;0.50;;;;;;;6.35;100.00;101795.09;5068407;28;20051;-51
2023/03/05 10:00:30;;;;;;;2.63;0.60;;;;;;;6.60;100.00;101791.97;5066143;28;20024;-53
2023/03/05 10:02:57;;;;;;;4.13;0.63;;;;;;;6.64;100.00;101791.72;5022891;28;20072;-53
2023/03/05 10:05:35;;;;;;;4.10;0.95;;;;;;;6.79;100.00;101782.34;5005843;28;20030;-52
2023/03/05 10:08:03;;;;;;;7.03;0.90;;;;;;;6.79;100.00;101785.91;5042083;28;20078;-54
2023/03/05 10:10:37;;;;;;;13.55;0.98;;;;;;;6.85;100.00;101783.66;5071923;28;20028;-52
2023/03/05 10:13:12;;;;;;;9.98;1.10;;;;;;;7.12;100.00;101775.88;5064481;28;20036;-52
2023/03/05 10:15:50;;;;;;;10.18;0.80;;;;;;;8.07;100.00;101783.28;5063613;28;20475;-51
2023/03/05 10:18:28;;;;;;;5.70;0.70;;;;;;;8.82;100.00;101770.03;5066573;28;20041;-52
2023/03/05 10:21:14;;;;;;;7.63;0.70;;;;;;;9.44;100.00;101746.88;5069145;28;20029;-52
2023/03/05 10:23:59;;;;;;;7.30;1.23;;;;;;;10.01;100.00;101732.28;5068912;28;20032;-53
2023/03/05 10:26:51;;;;;;;4.85;0.80;;;;;;;10.10;100.00;101726.78;5068373;28;20467;-52
2023/03/05 10:29:35;;;;;;;10.55;0.75;;;;;;;10.14;100.00;101727.34;5067217;28;20064;-55
2023/03/05 10:32:09;;;;;;;4.50;1.02;;;;;;;10.01;100.00;101719.69;5068967;28;20427;-53
2023/03/05 10:34:47;;;;;;;4.05;0.57;;;;;;;10.07;100.00;101715.50;5069611;28;20040;-52
2023/03/05 10:37:31;;;;;;;9.18;0.98;;;;;;;9.79;100.00;101712.94;5069572;28;20386;-52
2023/03/05 10:40:08;;;;;;;6.93;1.02;;;;;;;10.10;100.00;101718.72;5050445;28;20025;-52
2023/03/05 10:42:43;;;;;;;7.18;1.60;;;;;;;10.27;100.00;101711.66;5069373;28;20425;-51
2023/03/05 10:45:17;;;;;;;4.30;0.93;;;;;;;10.61;100.00;101713.53;5069771;28;20029;-52
2023/03/05 10:48:08;;;;;;;10.77;0.70;;;;;;;10.18;100.00;101707.19;5068011;28;20414;-54
2023/03/05 10:50:41;;;;;;;2.22;0.93;;;;;;;10.55;100.00;101698.00;5069444;28;20505;-52
2023/03/05 10:53:14;;;;;;;3.28;1.02;;;;;;;10.37;100.00;101691.84;5069910;28;20085;-54
2023/03/05 10:55:39;;;;;;;4.78;1.00;;;;;;;10.41;100.00;101685.16;5071716;28;20025;-52
2023/03/05 10:58:14;;;;;;;9.07;0.95;;;;;;;9.87;100.00;101683.44;5073627;28;20040;-51
2023/03/05 11:00:56;;;;;;;10.10;1.20;;;;;;;9.72;100.00;101685.00;5073973;28;20033;-51
2023/03/05 11:03:21;;;;;;;8.63;0.90;;;;;;;9.51;100.00;101676.44;5072827;28;20389;-54
2023/03/05 11:05:50;;;;;;;6.75;0.75;;;;;;;9.69;100.00;101674.56;5073221;28;20100;-50
2023/03/05 11:08:31;;;;;;;4.97;1.10;;;;;;;9.95;100.00;101663.81;5072856;28;20143;-51
2023/03/05 11:11:08;;;;;;;7.50;0.77;;;;;;;9.91;100.00;101661.63;5072918;28;20052;-52
2023/03/05 11:13:37;;;;;;;11.48;0.88;;;;;;;9.63;100.00;101659.88;5072828;28;20029;-52
2023/03/05 11:16:06;;;;;;;9.35;0.80;;;;;;;9.72;100.00;101658.13;5054693;28;20066;-52
2023/03/05 11:18:33;;;;;;;;;;;;;;;9.66;100.00;101653.34;5072941;28;20095;-53
2023/03/05 11:21:10;;;;;;;5.28;1.25;;;;;;;9.75;100.00;101651.59;5072746;28;20232;-51